sensor_id;sensor_type;location;lat;lon;timestamp;P1;durP1;ratioP1;P2;durP2;ratioP2
22282;SDS011;11310;51.528;21.204;2024-03-08T00:01:41;74.70;;;29.73;;
22282;SDS011;11310;51.528;21.204;2024-03-08T00:04:12;75.30;;;29.63;;
22282;SDS011;11310;51.528;21.204;2024-03-08T00:06:42;64.75;;;27.95;;
22282;SDS011;11310;51.528;21.204;2024-03-08T00:09:14;67.63;;;28.08;;
22282;SDS011;11310;51.528;21.204;2024-03-08T00:11:42;74.50;;;29.33;;
22282;SDS011;11310;51.528;21.204;2024-03-08T00:14:10;71.22;;;28.90;;
22282;SDS011;11310;51.528;21.204;2024-03-08T00:16:39;73.38;;;29.98;;
22282;SDS011;11310;51.528;21.204;2024-03-08T00:19:09;64.13;;;28.98;;
22282;SDS011;11310;51.528;21.204;2024-03-08T00:21:38;73.38;;;29.00;;
22282;SDS011;11310;51.528;21.204;2024-03-08T00:24:06;60.17;;;26.52;;
22282;SDS011;11310;51.528;21.204;2024-03-08T00:26:36;66.80;;;29.00;;
22282;SDS011;11310;51.528;21.204;2024-03-08T00:29:05;74.80;;;29.95;;
22282;SDS011;11310;51.528;21.204;2024-03-08T00:31:34;64.00;;;27.10;;
22282;SDS011;11310;51.528;21.204;2024-03-08T00:34:03;69.57;;;28.98;;
22282;SDS011;11310;51.528;21.204;2024-03-08T00:36:33;70.93;;;29.00;;
22282;SDS011;11310;51.528;21.204;2024-03-08T00:39:01;64.25;;;26.83;;
22282;SDS011;11310;51.528;21.204;2024-03-08T00:41:33;69.05;;;27.73;;
22282;SDS011;11310;51.528;21.204;2024-03-08T00:44:02;67.97;;;28.23;;
22282;SDS011;11310;51.528;21.204;2024-03-08T00:46:31;70.18;;;27.98;;
22282;SDS011;11310;51.528;21.204;2024-03-08T00:49:00;71.03;;;29.60;;
22282;SDS011;11310;51.528;21.204;2024-03-08T00:51:29;77.22;;;28.85;;
22282;SDS011;11310;51.528;21.204;2024-03-08T00:53:57;63.22;;;27.42;;
22282;SDS011;11310;51.528;21.204;2024-03-08T00:56:26;69.70;;;28.50;;
22282;SDS011;11310;51.528;21.204;2024-03-08T00:58:54;72.35;;;29.90;;
22282;SDS011;11310;51.528;21.204;2024-03-08T01:01:24;73.32;;;28.52;;
22282;SDS011;11310;51.528;21.204;2024-03-08T01:03:53;74.32;;;29.27;;
22282;SDS011;11310;51.528;21.204;2024-03-08T01:06:22;81.13;;;29.70;;
22282;SDS011;11310;51.528;21.204;2024-03-08T01:08:50;67.22;;;27.35;;
22282;SDS011;11310;51.528;21.204;2024-03-08T01:11:19;71.30;;;28.38;;
22282;SDS011;11310;51.528;21.204;2024-03-08T01:13:48;72.65;;;28.73;;
22282;SDS011;11310;51.528;21.204;2024-03-08T01:16:17;68.07;;;28.23;;
22282;SDS011;11310;51.528;21.204;2024-03-08T01:18:48;72.57;;;28.40;;
22282;SDS011;11310;51.528;21.204;2024-03-08T01:21:17;76.80;;;30.27;;
22282;SDS011;11310;51.528;21.204;2024-03-08T01:23:45;70.15;;;30.38;;
22282;SDS011;11310;51.528;21.204;2024-03-08T01:26:14;64.95;;;28.38;;
22282;SDS011;11310;51.528;21.204;2024-03-08T01:28:43;70.85;;;28.15;;
22282;SDS011;11310;51.528;21.204;2024-03-08T01:33:43;85.72;;;28.58;;
22282;SDS011;11310;51.528;21.204;2024-03-08T01:36:13;72.85;;;28.42;;
22282;SDS011;11310;51.528;21.204;2024-03-08T01:38:42;68.25;;;27.15;;
22282;SDS011;11310;51.528;21.204;2024-03-08T01:41:10;65.88;;;26.85;;
22282;SDS011;11310;51.528;21.204;2024-03-08T01:43:39;69.85;;;27.48;;
22282;SDS011;11310;51.528;21.204;2024-03-08T01:46:08;59.92;;;26.25;;
22282;SDS011;11310;51.528;21.204;2024-03-08T01:48:37;69.65;;;26.85;;
22282;SDS011;11310;51.528;21.204;2024-03-08T01:51:08;67.82;;;27.15;;
22282;SDS011;11310;51.528;21.204;2024-03-08T01:53:40;77.03;;;27.95;;
22282;SDS011;11310;51.528;21.204;2024-03-08T01:56:13;72.55;;;28.35;;
22282;SDS011;11310;51.528;21.204;2024-03-08T01:58:41;72.55;;;29.98;;
22282;SDS011;11310;51.528;21.204;2024-03-08T02:01:11;83.50;;;32.25;;
22282;SDS011;11310;51.528;21.204;2024-03-08T02:03:41;77.32;;;30.00;;
22282;SDS011;11310;51.528;21.204;2024-03-08T02:06:12;75.55;;;27.38;;
22282;SDS011;11310;51.528;21.204;2024-03-08T02:08:44;73.32;;;26.00;;
22282;SDS011;11310;51.528;21.204;2024-03-08T02:11:13;62.47;;;25.07;;
22282;SDS011;11310;51.528;21.204;2024-03-08T02:13:43;70.65;;;26.60;;
22282;SDS011;11310;51.528;21.204;2024-03-08T02:16:11;65.10;;;25.52;;
22282;SDS011;11310;51.528;21.204;2024-03-08T02:18:40;67.10;;;24.80;;
22282;SDS011;11310;51.528;21.204;2024-03-08T02:21:10;59.58;;;24.58;;
22282;SDS011;11310;51.528;21.204;2024-03-08T02:23:38;66.68;;;27.73;;
22282;SDS011;11310;51.528;21.204;2024-03-08T02:26:07;60.85;;;25.90;;
22282;SDS011;11310;51.528;21.204;2024-03-08T02:28:36;65.97;;;24.08;;
22282;SDS011;11310;51.528;21.204;2024-03-08T02:31:04;56.78;;;23.50;;
22282;SDS011;11310;51.528;21.204;2024-03-08T02:33:34;56.00;;;22.17;;
22282;SDS011;11310;51.528;21.204;2024-03-08T02:36:03;55.75;;;23.30;;
22282;SDS011;11310;51.528;21.204;2024-03-08T02:38:35;63.42;;;23.50;;
22282;SDS011;11310;51.528;21.204;2024-03-08T02:41:05;54.20;;;25.23;;
22282;SDS011;11310;51.528;21.204;2024-03-08T02:43:33;57.88;;;24.50;;
22282;SDS011;11310;51.528;21.204;2024-03-08T02:46:01;55.83;;;24.67;;
22282;SDS011;11310;51.528;21.204;2024-03-08T02:48:31;54.47;;;23.08;;
22282;SDS011;11310;51.528;21.204;2024-03-08T02:51:00;55.88;;;24.65;;
22282;SDS011;11310;51.528;21.204;2024-03-08T02:53:29;56.85;;;24.95;;
22282;SDS011;11310;51.528;21.204;2024-03-08T02:55:59;63.38;;;30.42;;
22282;SDS011;11310;51.528;21.204;2024-03-08T02:58:27;70.22;;;27.10;;
22282;SDS011;11310;51.528;21.204;2024-03-08T03:00:55;79.13;;;35.10;;
22282;SDS011;11310;51.528;21.204;2024-03-08T03:03:24;63.08;;;28.23;;
22282;SDS011;11310;51.528;21.204;2024-03-08T03:05:53;140.20;;;37.10;;
22282;SDS011;11310;51.528;21.204;2024-03-08T03:08:22;72.53;;;28.80;;
22282;SDS011;11310;51.528;21.204;2024-03-08T03:10:51;85.50;;;31.00;;
22282;SDS011;11310;51.528;21.204;2024-03-08T03:13:20;86.75;;;29.63;;
22282;SDS011;11310;51.528;21.204;2024-03-08T03:15:49;72.80;;;30.90;;
22282;SDS011;11310;51.528;21.204;2024-03-08T03:18:18;85.20;;;30.50;;
22282;SDS011;11310;51.528;21.204;2024-03-08T03:20:48;87.60;;;34.63;;
22282;SDS011;11310;51.528;21.204;2024-03-08T03:23:16;83.75;;;30.25;;
22282;SDS011;11310;51.528;21.204;2024-03-08T03:25:47;87.87;;;30.87;;
22282;SDS011;11310;51.528;21.204;2024-03-08T03:28:15;92.60;;;31.48;;
22282;SDS011;11310;51.528;21.204;2024-03-08T03:30:46;114.82;;;39.13;;
22282;SDS011;11310;51.528;21.204;2024-03-08T03:33:15;91.82;;;30.35;;
22282;SDS011;11310;51.528;21.204;2024-03-08T03:35:44;110.70;;;36.00;;
22282;SDS011;11310;51.528;21.204;2024-03-08T03:38:13;96.85;;;32.20;;
22282;SDS011;11310;51.528;21.204;2024-03-08T03:40:41;87.60;;;31.30;;
22282;SDS011;11310;51.528;21.204;2024-03-08T03:43:11;95.22;;;34.05;;
22282;SDS011;11310;51.528;21.204;2024-03-08T03:45:40;96.47;;;33.88;;
22282;SDS011;11310;51.528;21.204;2024-03-08T03:48:10;97.40;;;36.28;;
22282;SDS011;11310;51.528;21.204;2024-03-08T03:50:38;88.40;;;33.47;;
22282;SDS011;11310;51.528;21.204;2024-03-08T03:53:08;89.63;;;35.25;;
22282;SDS011;11310;51.528;21.204;2024-03-08T03:55:37;85.57;;;34.15;;
22282;SDS011;11310;51.528;21.204;2024-03-08T03:58:07;84.13;;;32.88;;
22282;SDS011;11310;51.528;21.204;2024-03-08T04:00:38;88.68;;;35.70;;
22282;SDS011;11310;51.528;21.204;2024-03-08T04:03:07;89.57;;;31.88;;
22282;SDS011;11310;51.528;21.204;2024-03-08T04:05:37;79.93;;;32.45;;
22282;SDS011;11310;51.528;21.204;2024-03-08T04:08:06;92.20;;;35.00;;
22282;SDS011;11310;51.528;21.204;2024-03-08T04:10:34;100.07;;;37.85;;
22282;SDS011;11310;51.528;21.204;2024-03-08T04:13:02;87.50;;;35.35;;
22282;SDS011;11310;51.528;21.204;2024-03-08T04:15:31;89.00;;;34.67;;
22282;SDS011;11310;51.528;21.204;2024-03-08T04:17:59;88.82;;;34.67;;
22282;SDS011;11310;51.528;21.204;2024-03-08T04:20:30;98.55;;;35.15;;
22282;SDS011;11310;51.528;21.204;2024-03-08T04:23:00;99.32;;;35.60;;
22282;SDS011;11310;51.528;21.204;2024-03-08T04:25:28;84.55;;;31.75;;
22282;SDS011;11310;51.528;21.204;2024-03-08T04:27:57;95.15;;;34.47;;
22282;SDS011;11310;51.528;21.204;2024-03-08T04:30:26;83.32;;;32.03;;
22282;SDS011;11310;51.528;21.204;2024-03-08T04:32:55;101.82;;;36.63;;
22282;SDS011;11310;51.528;21.204;2024-03-08T04:35:23;92.13;;;34.22;;
22282;SDS011;11310;51.528;21.204;2024-03-08T04:37:52;109.75;;;39.15;;
22282;SDS011;11310;51.528;21.204;2024-03-08T04:40:22;81.88;;;30.33;;
22282;SDS011;11310;51.528;21.204;2024-03-08T04:42:51;110.28;;;36.50;;
22282;SDS011;11310;51.528;21.204;2024-03-08T04:45:20;83.18;;;30.17;;
22282;SDS011;11310;51.528;21.204;2024-03-08T04:47:49;99.38;;;34.95;;
22282;SDS011;11310;51.528;21.204;2024-03-08T04:50:19;81.55;;;29.33;;
22282;SDS011;11310;51.528;21.204;2024-03-08T04:52:48;105.25;;;34.20;;
22282;SDS011;11310;51.528;21.204;2024-03-08T04:55:16;95.05;;;32.50;;
22282;SDS011;11310;51.528;21.204;2024-03-08T04:57:49;101.97;;;32.75;;
22282;SDS011;11310;51.528;21.204;2024-03-08T05:00:18;99.13;;;34.63;;
22282;SDS011;11310;51.528;21.204;2024-03-08T05:02:47;86.57;;;32.97;;
22282;SDS011;11310;51.528;21.204;2024-03-08T05:05:20;80.55;;;32.72;;
22282;SDS011;11310;51.528;21.204;2024-03-08T05:07:49;89.28;;;37.08;;
22282;SDS011;11310;51.528;21.204;2024-03-08T05:10:18;68.10;;;27.35;;
22282;SDS011;11310;51.528;21.204;2024-03-08T05:12:50;78.13;;;31.75;;
22282;SDS011;11310;51.528;21.204;2024-03-08T05:15:22;79.63;;;30.20;;
22282;SDS011;11310;51.528;21.204;2024-03-08T05:17:52;87.75;;;34.50;;
22282;SDS011;11310;51.528;21.204;2024-03-08T05:20:23;68.22;;;27.13;;
22282;SDS011;11310;51.528;21.204;2024-03-08T05:22:52;80.03;;;32.30;;
22282;SDS011;11310;51.528;21.204;2024-03-08T05:25:20;75.63;;;29.85;;
22282;SDS011;11310;51.528;21.204;2024-03-08T05:27:51;80.93;;;33.08;;
22282;SDS011;11310;51.528;21.204;2024-03-08T05:30:20;77.53;;;30.53;;
22282;SDS011;11310;51.528;21.204;2024-03-08T05:32:49;81.28;;;35.97;;
22282;SDS011;11310;51.528;21.204;2024-03-08T05:35:18;79.32;;;30.65;;
22282;SDS011;11310;51.528;21.204;2024-03-08T05:37:47;69.30;;;29.48;;
22282;SDS011;11310;51.528;21.204;2024-03-08T05:40:16;79.35;;;28.70;;
22282;SDS011;11310;51.528;21.204;2024-03-08T05:42:49;87.35;;;31.45;;
22282;SDS011;11310;51.528;21.204;2024-03-08T05:45:19;78.32;;;27.40;;
22282;SDS011;11310;51.528;21.204;2024-03-08T05:47:47;65.85;;;26.80;;
22282;SDS011;11310;51.528;21.204;2024-03-08T05:50:16;69.15;;;27.88;;
22282;SDS011;11310;51.528;21.204;2024-03-08T05:52:46;67.47;;;27.77;;
22282;SDS011;11310;51.528;21.204;2024-03-08T05:55:16;79.05;;;29.80;;
22282;SDS011;11310;51.528;21.204;2024-03-08T05:57:45;75.25;;;28.23;;
22282;SDS011;11310;51.528;21.204;2024-03-08T06:00:15;70.45;;;28.75;;
22282;SDS011;11310;51.528;21.204;2024-03-08T06:02:46;80.45;;;31.75;;
22282;SDS011;11310;51.528;21.204;2024-03-08T06:05:15;81.28;;;30.08;;
22282;SDS011;11310;51.528;21.204;2024-03-08T06:07:43;79.20;;;29.55;;
22282;SDS011;11310;51.528;21.204;2024-03-08T06:10:11;70.85;;;29.02;;
22282;SDS011;11310;51.528;21.204;2024-03-08T06:12:40;72.03;;;29.95;;
22282;SDS011;11310;51.528;21.204;2024-03-08T06:15:09;74.55;;;32.28;;
22282;SDS011;11310;51.528;21.204;2024-03-08T06:17:43;76.15;;;31.38;;
22282;SDS011;11310;51.528;21.204;2024-03-08T06:20:12;83.07;;;30.83;;
22282;SDS011;11310;51.528;21.204;2024-03-08T06:22:41;78.32;;;32.38;;
22282;SDS011;11310;51.528;21.204;2024-03-08T06:25:11;75.03;;;31.15;;
22282;SDS011;11310;51.528;21.204;2024-03-08T06:27:41;81.43;;;31.42;;
22282;SDS011;11310;51.528;21.204;2024-03-08T06:30:11;78.63;;;28.38;;
22282;SDS011;11310;51.528;21.204;2024-03-08T06:32:40;72.45;;;30.92;;
22282;SDS011;11310;51.528;21.204;2024-03-08T06:35:12;66.55;;;27.63;;
22282;SDS011;11310;51.528;21.204;2024-03-08T06:37:43;70.30;;;28.15;;
22282;SDS011;11310;51.528;21.204;2024-03-08T06:40:12;87.32;;;32.58;;
22282;SDS011;11310;51.528;21.204;2024-03-08T06:42:41;76.75;;;32.60;;
22282;SDS011;11310;51.528;21.204;2024-03-08T06:45:13;70.78;;;31.27;;
22282;SDS011;11310;51.528;21.204;2024-03-08T06:47:46;92.80;;;32.72;;
22282;SDS011;11310;51.528;21.204;2024-03-08T06:50:16;79.07;;;32.60;;
22282;SDS011;11310;51.528;21.204;2024-03-08T06:52:45;95.25;;;35.28;;
22282;SDS011;11310;51.528;21.204;2024-03-08T06:55:24;185.98;;;42.90;;
22282;SDS011;11310;51.528;21.204;2024-03-08T06:57:53;85.97;;;33.92;;
22282;SDS011;11310;51.528;21.204;2024-03-08T07:00:21;81.97;;;35.60;;
22282;SDS011;11310;51.528;21.204;2024-03-08T07:02:53;91.78;;;37.08;;
22282;SDS011;11310;51.528;21.204;2024-03-08T07:05:23;95.65;;;40.35;;
22282;SDS011;11310;51.528;21.204;2024-03-08T07:07:55;93.50;;;36.80;;
22282;SDS011;11310;51.528;21.204;2024-03-08T07:10:24;86.10;;;36.20;;
22282;SDS011;11310;51.528;21.204;2024-03-08T07:12:53;79.70;;;33.33;;
22282;SDS011;11310;51.528;21.204;2024-03-08T07:15:22;97.03;;;36.55;;
22282;SDS011;11310;51.528;21.204;2024-03-08T07:17:51;98.25;;;36.72;;
22282;SDS011;11310;51.528;21.204;2024-03-08T07:20:20;77.75;;;34.88;;
22282;SDS011;11310;51.528;21.204;2024-03-08T07:22:51;88.95;;;35.33;;
22282;SDS011;11310;51.528;21.204;2024-03-08T07:25:19;95.05;;;37.53;;
22282;SDS011;11310;51.528;21.204;2024-03-08T07:27:50;96.70;;;37.47;;
22282;SDS011;11310;51.528;21.204;2024-03-08T07:30:20;88.07;;;37.67;;
22282;SDS011;11310;51.528;21.204;2024-03-08T07:33:09;95.30;;;37.50;;
22282;SDS011;11310;51.528;21.204;2024-03-08T07:35:40;85.90;;;35.70;;
22282;SDS011;11310;51.528;21.204;2024-03-08T07:38:10;88.15;;;36.65;;
22282;SDS011;11310;51.528;21.204;2024-03-08T07:40:40;82.90;;;36.13;;
22282;SDS011;11310;51.528;21.204;2024-03-08T07:43:12;83.40;;;35.38;;
22282;SDS011;11310;51.528;21.204;2024-03-08T07:45:40;75.65;;;34.10;;
22282;SDS011;11310;51.528;21.204;2024-03-08T07:48:09;76.68;;;32.35;;
22282;SDS011;11310;51.528;21.204;2024-03-08T07:50:39;89.35;;;38.78;;
22282;SDS011;11310;51.528;21.204;2024-03-08T07:53:09;86.18;;;37.33;;
22282;SDS011;11310;51.528;21.204;2024-03-08T07:55:38;77.93;;;32.97;;
22282;SDS011;11310;51.528;21.204;2024-03-08T07:58:09;75.97;;;31.50;;
22282;SDS011;11310;51.528;21.204;2024-03-08T08:00:38;70.43;;;28.73;;
22282;SDS011;11310;51.528;21.204;2024-03-08T08:03:11;64.95;;;27.38;;
22282;SDS011;11310;51.528;21.204;2024-03-08T08:05:40;69.50;;;28.20;;
22282;SDS011;11310;51.528;21.204;2024-03-08T08:08:10;55.78;;;26.05;;
22282;SDS011;11310;51.528;21.204;2024-03-08T08:10:38;59.45;;;26.00;;
22282;SDS011;11310;51.528;21.204;2024-03-08T08:13:07;48.17;;;22.60;;
22282;SDS011;11310;51.528;21.204;2024-03-08T08:15:36;41.15;;;18.58;;
22282;SDS011;11310;51.528;21.204;2024-03-08T08:18:05;35.55;;;16.90;;
22282;SDS011;11310;51.528;21.204;2024-03-08T08:20:36;46.75;;;19.60;;
22282;SDS011;11310;51.528;21.204;2024-03-08T08:23:05;38.97;;;17.67;;
22282;SDS011;11310;51.528;21.204;2024-03-08T08:25:35;36.97;;;17.00;;
22282;SDS011;11310;51.528;21.204;2024-03-08T08:28:03;38.20;;;17.13;;
22282;SDS011;11310;51.528;21.204;2024-03-08T08:30:32;46.88;;;18.58;;
22282;SDS011;11310;51.528;21.204;2024-03-08T08:33:07;41.67;;;18.63;;
22282;SDS011;11310;51.528;21.204;2024-03-08T08:35:36;43.80;;;19.00;;
22282;SDS011;11310;51.528;21.204;2024-03-08T08:38:05;48.00;;;21.27;;
22282;SDS011;11310;51.528;21.204;2024-03-08T08:40:37;48.17;;;20.88;;
22282;SDS011;11310;51.528;21.204;2024-03-08T08:43:05;52.75;;;23.48;;
22282;SDS011;11310;51.528;21.204;2024-03-08T08:45:34;52.90;;;23.83;;
22282;SDS011;11310;51.528;21.204;2024-03-08T08:48:03;48.70;;;22.83;;
22282;SDS011;11310;51.528;21.204;2024-03-08T08:50:32;46.38;;;20.70;;
22282;SDS011;11310;51.528;21.204;2024-03-08T08:53:01;46.40;;;22.52;;
22282;SDS011;11310;51.528;21.204;2024-03-08T08:55:31;47.63;;;21.40;;
22282;SDS011;11310;51.528;21.204;2024-03-08T08:58:04;45.47;;;18.95;;
22282;SDS011;11310;51.528;21.204;2024-03-08T09:00:33;40.83;;;19.83;;
22282;SDS011;11310;51.528;21.204;2024-03-08T09:03:02;41.00;;;18.00;;
22282;SDS011;11310;51.528;21.204;2024-03-08T09:05:30;41.70;;;18.83;;
22282;SDS011;11310;51.528;21.204;2024-03-08T09:08:02;40.33;;;19.02;;
22282;SDS011;11310;51.528;21.204;2024-03-08T09:10:31;45.28;;;19.02;;
22282;SDS011;11310;51.528;21.204;2024-03-08T09:13:01;36.88;;;17.98;;
22282;SDS011;11310;51.528;21.204;2024-03-08T09:15:32;32.15;;;16.65;;
22282;SDS011;11310;51.528;21.204;2024-03-08T09:18:01;32.42;;;16.08;;
22282;SDS011;11310;51.528;21.204;2024-03-08T09:20:30;24.27;;;12.10;;
22282;SDS011;11310;51.528;21.204;2024-03-08T09:22:59;21.15;;;10.85;;
22282;SDS011;11310;51.528;21.204;2024-03-08T09:25:27;20.13;;;10.40;;
22282;SDS011;11310;51.528;21.204;2024-03-08T09:28:00;18.45;;;8.93;;
22282;SDS011;11310;51.528;21.204;2024-03-08T09:30:30;21.25;;;9.75;;
22282;SDS011;11310;51.528;21.204;2024-03-08T09:33:05;37.83;;;17.05;;
22282;SDS011;11310;51.528;21.204;2024-03-08T09:35:34;36.22;;;15.20;;
22282;SDS011;11310;51.528;21.204;2024-03-08T09:38:05;28.20;;;15.52;;
22282;SDS011;11310;51.528;21.204;2024-03-08T09:40:38;23.23;;;12.57;;
22282;SDS011;11310;51.528;21.204;2024-03-08T09:43:06;18.02;;;9.93;;
22282;SDS011;11310;51.528;21.204;2024-03-08T09:45:37;21.70;;;9.95;;
22282;SDS011;11310;51.528;21.204;2024-03-08T09:48:09;18.75;;;9.15;;
22282;SDS011;11310;51.528;21.204;2024-03-08T09:50:41;17.45;;;9.57;;
22282;SDS011;11310;51.528;21.204;2024-03-08T09:53:10;30.42;;;14.38;;
22282;SDS011;11310;51.528;21.204;2024-03-08T09:55:43;47.33;;;15.07;;
22282;SDS011;11310;51.528;21.204;2024-03-08T09:58:16;87.90;;;14.73;;
22282;SDS011;11310;51.528;21.204;2024-03-08T10:01:05;112.63;;;20.85;;
22282;SDS011;11310;51.528;21.204;2024-03-08T10:03:39;56.08;;;16.75;;
22282;SDS011;11310;51.528;21.204;2024-03-08T10:06:08;89.88;;;16.88;;
22282;SDS011;11310;51.528;21.204;2024-03-08T10:08:38;322.27;;;43.55;;
22282;SDS011;11310;51.528;21.204;2024-03-08T10:11:10;26.83;;;12.13;;
22282;SDS011;11310;51.528;21.204;2024-03-08T10:13:39;20.00;;;11.77;;
22282;SDS011;11310;51.528;21.204;2024-03-08T10:16:12;15.88;;;9.70;;
22282;SDS011;11310;51.528;21.204;2024-03-08T10:18:41;17.60;;;8.65;;
22282;SDS011;11310;51.528;21.204;2024-03-08T10:21:09;23.42;;;11.20;;
22282;SDS011;11310;51.528;21.204;2024-03-08T10:23:38;21.63;;;10.63;;
22282;SDS011;11310;51.528;21.204;2024-03-08T10:26:10;31.08;;;12.98;;
22282;SDS011;11310;51.528;21.204;2024-03-08T10:28:41;25.17;;;12.20;;
22282;SDS011;11310;51.528;21.204;2024-03-08T10:31:13;22.92;;;12.07;;
22282;SDS011;11310;51.528;21.204;2024-03-08T10:33:45;22.50;;;11.68;;
22282;SDS011;11310;51.528;21.204;2024-03-08T10:36:14;18.25;;;10.02;;
22282;SDS011;11310;51.528;21.204;2024-03-08T10:38:46;17.90;;;10.13;;
22282;SDS011;11310;51.528;21.204;2024-03-08T10:41:19;15.38;;;7.50;;
22282;SDS011;11310;51.528;21.204;2024-03-08T10:43:55;25.15;;;13.57;;
22282;SDS011;11310;51.528;21.204;2024-03-08T10:46:42;22.90;;;11.80;;
22282;SDS011;11310;51.528;21.204;2024-03-08T10:49:30;23.75;;;13.13;;
22282;SDS011;11310;51.528;21.204;2024-03-08T10:52:02;44.80;;;14.93;;
22282;SDS011;11310;51.528;21.204;2024-03-08T10:54:32;106.40;;;18.85;;
22282;SDS011;11310;51.528;21.204;2024-03-08T10:57:01;93.10;;;16.25;;
22282;SDS011;11310;51.528;21.204;2024-03-08T10:59:34;87.30;;;17.83;;
22282;SDS011;11310;51.528;21.204;2024-03-08T11:02:07;206.40;;;112.35;;
22282;SDS011;11310;51.528;21.204;2024-03-08T11:04:36;71.53;;;16.30;;
22282;SDS011;11310;51.528;21.204;2024-03-08T11:07:05;46.30;;;13.60;;
22282;SDS011;11310;51.528;21.204;2024-03-08T11:09:35;73.28;;;16.52;;
22282;SDS011;11310;51.528;21.204;2024-03-08T11:12:24;60.47;;;14.70;;
22282;SDS011;11310;51.528;21.204;2024-03-08T11:14:58;112.35;;;20.90;;
22282;SDS011;11310;51.528;21.204;2024-03-08T11:17:44;54.60;;;12.45;;
22282;SDS011;11310;51.528;21.204;2024-03-08T11:20:14;61.67;;;12.50;;
22282;SDS011;11310;51.528;21.204;2024-03-08T11:22:47;105.78;;;17.77;;
22282;SDS011;11310;51.528;21.204;2024-03-08T11:25:32;59.88;;;11.80;;
22282;SDS011;11310;51.528;21.204;2024-03-08T11:28:10;108.18;;;17.92;;
22282;SDS011;11310;51.528;21.204;2024-03-08T11:30:45;137.10;;;20.83;;
22282;SDS011;11310;51.528;21.204;2024-03-08T11:33:16;111.38;;;17.10;;
22282;SDS011;11310;51.528;21.204;2024-03-08T11:35:46;12.20;;;6.78;;
22282;SDS011;11310;51.528;21.204;2024-03-08T11:38:15;16.48;;;7.78;;
22282;SDS011;11310;51.528;21.204;2024-03-08T11:40:46;14.25;;;6.80;;
22282;SDS011;11310;51.528;21.204;2024-03-08T11:43:17;13.98;;;6.97;;
22282;SDS011;11310;51.528;21.204;2024-03-08T11:45:46;13.55;;;6.97;;
22282;SDS011;11310;51.528;21.204;2024-03-08T11:48:15;14.38;;;6.90;;
22282;SDS011;11310;51.528;21.204;2024-03-08T11:50:44;14.02;;;7.30;;
22282;SDS011;11310;51.528;21.204;2024-03-08T11:53:17;15.43;;;7.38;;
22282;SDS011;11310;51.528;21.204;2024-03-08T11:55:46;15.02;;;7.57;;
22282;SDS011;11310;51.528;21.204;2024-03-08T11:58:16;13.10;;;6.43;;
22282;SDS011;11310;51.528;21.204;2024-03-08T12:00:45;14.18;;;7.53;;
22282;SDS011;11310;51.528;21.204;2024-03-08T12:03:13;15.02;;;7.18;;
22282;SDS011;11310;51.528;21.204;2024-03-08T12:05:43;13.95;;;6.55;;
22282;SDS011;11310;51.528;21.204;2024-03-08T12:08:12;13.20;;;7.23;;
22282;SDS011;11310;51.528;21.204;2024-03-08T12:10:42;14.57;;;7.80;;
22282;SDS011;11310;51.528;21.204;2024-03-08T12:13:10;13.07;;;7.18;;
22282;SDS011;11310;51.528;21.204;2024-03-08T12:15:41;16.38;;;7.53;;
22282;SDS011;11310;51.528;21.204;2024-03-08T12:18:11;13.77;;;7.40;;
22282;SDS011;11310;51.528;21.204;2024-03-08T12:20:40;16.70;;;7.90;;
22282;SDS011;11310;51.528;21.204;2024-03-08T12:23:17;15.57;;;8.25;;
22282;SDS011;11310;51.528;21.204;2024-03-08T12:25:45;14.85;;;7.65;;
22282;SDS011;11310;51.528;21.204;2024-03-08T12:28:15;15.52;;;8.07;;
22282;SDS011;11310;51.528;21.204;2024-03-08T12:30:46;15.40;;;6.95;;
22282;SDS011;11310;51.528;21.204;2024-03-08T12:33:18;13.15;;;7.70;;
22282;SDS011;11310;51.528;21.204;2024-03-08T12:35:52;14.48;;;6.88;;
22282;SDS011;11310;51.528;21.204;2024-03-08T12:38:27;14.93;;;7.80;;
22282;SDS011;11310;51.528;21.204;2024-03-08T12:40:58;14.05;;;7.93;;
22282;SDS011;11310;51.528;21.204;2024-03-08T12:43:27;15.15;;;7.55;;
22282;SDS011;11310;51.528;21.204;2024-03-08T12:45:58;14.82;;;7.10;;
22282;SDS011;11310;51.528;21.204;2024-03-08T12:48:27;14.73;;;7.90;;
22282;SDS011;11310;51.528;21.204;2024-03-08T12:50:55;15.18;;;7.40;;
22282;SDS011;11310;51.528;21.204;2024-03-08T12:53:26;13.40;;;7.03;;
22282;SDS011;11310;51.528;21.204;2024-03-08T12:55:56;16.83;;;6.97;;
22282;SDS011;11310;51.528;21.204;2024-03-08T12:58:27;13.20;;;7.07;;
22282;SDS011;11310;51.528;21.204;2024-03-08T13:00:56;13.20;;;6.80;;
22282;SDS011;11310;51.528;21.204;2024-03-08T13:03:25;14.15;;;6.97;;
22282;SDS011;11310;51.528;21.204;2024-03-08T13:05:55;13.68;;;7.00;;
22282;SDS011;11310;51.528;21.204;2024-03-08T13:08:35;12.43;;;6.22;;
22282;SDS011;11310;51.528;21.204;2024-03-08T13:11:13;14.38;;;7.15;;
22282;SDS011;11310;51.528;21.204;2024-03-08T13:13:46;11.18;;;6.63;;
22282;SDS011;11310;51.528;21.204;2024-03-08T13:16:17;12.65;;;6.38;;
22282;SDS011;11310;51.528;21.204;2024-03-08T13:18:50;12.52;;;6.90;;
22282;SDS011;11310;51.528;21.204;2024-03-08T13:21:21;16.98;;;7.30;;
22282;SDS011;11310;51.528;21.204;2024-03-08T13:23:55;15.43;;;7.85;;
22282;SDS011;11310;51.528;21.204;2024-03-08T13:26:30;15.95;;;7.90;;
22282;SDS011;11310;51.528;21.204;2024-03-08T13:29:00;31.52;;;15.45;;
22282;SDS011;11310;51.528;21.204;2024-03-08T13:31:30;33.15;;;16.13;;
22282;SDS011;11310;51.528;21.204;2024-03-08T13:34:03;34.70;;;17.10;;
22282;SDS011;11310;51.528;21.204;2024-03-08T13:36:43;18.77;;;9.65;;
22282;SDS011;11310;51.528;21.204;2024-03-08T13:39:25;16.23;;;9.23;;
22282;SDS011;11310;51.528;21.204;2024-03-08T13:41:59;16.88;;;8.93;;
22282;SDS011;11310;51.528;21.204;2024-03-08T13:44:30;16.00;;;7.82;;
22282;SDS011;11310;51.528;21.204;2024-03-08T13:47:01;13.65;;;7.53;;
22282;SDS011;11310;51.528;21.204;2024-03-08T13:49:35;13.65;;;6.55;;
22282;SDS011;11310;51.528;21.204;2024-03-08T13:52:06;15.45;;;7.50;;
22282;SDS011;11310;51.528;21.204;2024-03-08T13:54:38;15.20;;;6.68;;
22282;SDS011;11310;51.528;21.204;2024-03-08T13:57:10;12.73;;;7.05;;
22282;SDS011;11310;51.528;21.204;2024-03-08T13:59:39;12.63;;;6.63;;
22282;SDS011;11310;51.528;21.204;2024-03-08T14:02:13;14.48;;;7.05;;
22282;SDS011;11310;51.528;21.204;2024-03-08T14:04:51;14.40;;;6.85;;
22282;SDS011;11310;51.528;21.204;2024-03-08T14:07:30;12.63;;;6.85;;
22282;SDS011;11310;51.528;21.204;2024-03-08T14:10:06;12.57;;;6.55;;
22282;SDS011;11310;51.528;21.204;2024-03-08T14:12:52;13.30;;;6.75;;
22282;SDS011;11310;51.528;21.204;2024-03-08T14:15:32;13.82;;;6.90;;
22282;SDS011;11310;51.528;21.204;2024-03-08T14:18:01;14.55;;;7.07;;
22282;SDS011;11310;51.528;21.204;2024-03-08T14:20:34;14.30;;;6.55;;
22282;SDS011;11310;51.528;21.204;2024-03-08T14:23:08;12.25;;;6.88;;
22282;SDS011;11310;51.528;21.204;2024-03-08T14:25:45;14.00;;;6.82;;
22282;SDS011;11310;51.528;21.204;2024-03-08T14:28:23;11.65;;;5.97;;
22282;SDS011;11310;51.528;21.204;2024-03-08T14:30:54;11.60;;;5.53;;
22282;SDS011;11310;51.528;21.204;2024-03-08T14:33:37;14.05;;;6.82;;